Time;durP1;ratioP1;P1;durP2;ratioP2;P2;SDS_P1;SDS_P2;PMS_P1;PMS_P2;Temp;Humidity;BMP_temperature;BMP_pressure;BME280_temperature;BME280_humidity;BME280_pressure;Samples;Min_cycle;Max_cycle;Signal;HPM_P1;HPM_P2
2023/10/04 00:01:41;;;;;;;6.72;2.55;;;;;;;17.96;60.17;99959.06;4483153;31;33454;-82
2023/10/04 00:04:12;;;;;;;2.08;1.17;;;;;;;17.85;60.36;99956.84;4477335;32;33923;-84
2023/10/04 00:06:42;;;;;;;4.90;1.37;;;;;;;17.79;60.70;99955.28;4482557;32;33051;-84
2023/10/04 00:09:11;;;;;;;2.97;1.53;;;;;;;17.91;60.55;99946.13;4486762;31;32784;-83
2023/10/04 00:11:41;;;;;;;4.18;1.77;;;;;;;17.80;60.79;99938.66;4480810;31;33191;-83
2023/10/04 00:14:09;;;;;;;4.40;1.27;;;;;;;17.86;60.57;99938.41;4478013;31;34440;-84
2023/10/04 00:16:38;;;;;;;5.20;1.30;;;;;;;18.13;59.79;99946.13;4485900;31;34419;-84
2023/10/04 00:19:09;;;;;;;2.83;1.83;;;;;;;17.98;60.25;99947.59;4476959;31;33533;-83
2023/10/04 00:21:38;;;;;;;4.47;1.52;;;;;;;18.28;59.49;99949.88;4488575;31;34034;-83
2023/10/04 00:24:09;;;;;;;4.25;1.73;;;;;;;18.25;59.31;99950.88;4480414;31;34831;-84
2023/10/04 00:26:39;;;;;;;5.87;1.75;;;;;;;18.04;60.20;99957.81;4476116;32;33498;-83
2023/10/04 00:29:08;;;;;;;4.15;1.73;;;;;;;17.92;60.12;99956.53;4481895;31;34614;-82
2023/10/04 00:31:37;;;;;;;3.78;1.67;;;;;;;17.91;60.57;99961.88;4485909;31;31709;-82
2023/10/04 00:34:08;;;;;;;2.03;1.20;;;;;;;17.94;60.14;99960.88;4485378;31;33740;-82
2023/10/04 00:36:38;;;;;;;2.72;1.60;;;;;;;18.00;60.15;99961.50;4475865;31;34093;-82
2023/10/04 00:39:08;;;;;;;4.00;1.87;;;;;;;18.18;59.29;99975.66;4494644;31;33198;-82
2023/10/04 00:41:39;;;;;;;3.10;1.60;;;;;;;17.92;60.16;99974.06;4480692;31;32390;-81
2023/10/04 00:44:09;;;;;;;2.10;1.40;;;;;;;17.77;60.75;99980.72;4486790;31;34980;-82
2023/10/04 00:46:44;;;;;;;3.37;1.87;;;;;;;17.83;60.62;99974.41;4484222;31;34844;-83
2023/10/04 00:49:17;;;;;;;3.28;1.73;;;;;;;17.84;60.60;99982.25;4477731;31;34560;-83
2023/10/04 00:51:46;;;;;;;4.93;2.90;;;;;;;17.72;61.02;99981.81;4482508;32;33380;-82
2023/10/04 00:54:16;;;;;;;4.47;2.00;;;;;;;17.66;61.44;99982.91;4477010;32;33512;-83
2023/10/04 00:56:46;;;;;;;3.15;1.65;;;;;;;17.88;60.76;99996.13;4476570;31;34046;-83
2023/10/04 00:59:16;;;;;;;4.05;1.50;;;;;;;17.90;60.52;99995.13;4478678;31;33373;-83
2023/10/04 01:01:45;;;;;;;2.35;1.48;;;;;;;18.04;59.89;99994.59;4485755;31;34007;-84
2023/10/04 01:04:15;;;;;;;3.10;1.45;;;;;;;17.77;60.70;99987.75;4478025;31;33860;-82
2023/10/04 01:06:45;;;;;;;2.97;1.67;;;;;;;17.69;61.28;99988.91;4475398;32;33152;-83
2023/10/04 01:09:18;;;;;;;2.10;1.48;;;;;;;17.78;60.87;99987.69;4475705;31;33053;-83
2023/10/04 01:11:48;;;;;;;4.72;1.35;;;;;;;17.66;61.30;99986.41;4483429;31;33047;-83
2023/10/04 01:14:23;;;;;;;4.22;1.92;;;;;;;17.55;61.88;99983.31;4498899;31;33854;-83
2023/10/04 01:16:53;;;;;;;1.67;1.10;;;;;;;17.65;61.89;99979.41;4485754;31;33992;-82
2023/10/04 01:19:22;;;;;;;3.58;1.83;;;;;;;17.66;61.92;99988.13;4477387;32;33655;-83
2023/10/04 01:21:51;;;;;;;5.22;1.98;;;;;;;17.52;62.72;99991.31;4476332;31;34094;-83
2023/10/04 01:24:21;;;;;;;3.17;1.80;;;;;;;17.51;62.69;99988.72;4482079;32;33725;-83
2023/10/04 01:26:51;;;;;;;4.50;1.62;;;;;;;17.59;62.49;99995.41;4480399;31;33568;-82
2023/10/04 01:29:19;;;;;;;3.47;1.83;;;;;;;17.63;62.45;99999.59;4488250;31;34192;-84
2023/10/04 01:31:48;;;;;;;3.15;1.33;;;;;;;17.81;62.00;100003.34;4480233;31;33335;-84
2023/10/04 01:34:17;;;;;;;4.22;2.20;;;;;;;17.76;61.71;100001.78;4479915;31;34566;-82
2023/10/04 01:36:46;;;;;;;2.42;1.50;;;;;;;17.64;62.17;100001.34;4480709;32;33371;-83
2023/10/04 01:39:19;;;;;;;4.43;1.87;;;;;;;17.79;61.47;99993.81;4478107;31;33853;-82
2023/10/04 01:41:51;;;;;;;3.28;1.80;;;;;;;17.63;62.48;100002.22;4479438;31;32532;-83
2023/10/04 01:44:20;;;;;;;4.82;1.65;;;;;;;18.13;61.72;100009.13;4477760;31;33579;-83
2023/10/04 01:46:49;;;;;;;4.87;2.15;;;;;;;17.94;62.25;100001.12;4481171;31;33624;-83
2023/10/04 01:49:17;;;;;;;4.43;2.10;;;;;;;17.72;63.88;100006.28;4481432;31;34272;-82
2023/10/04 01:51:46;;;;;;;5.55;1.65;;;;;;;17.99;63.18;100011.44;4489933;31;34210;-84
2023/10/04 01:54:17;;;;;;;4.93;2.08;;;;;;;18.27;62.43;100012.06;4476939;31;33231;-83
2023/10/04 01:56:46;;;;;;;3.03;1.73;;;;;;;18.25;62.51;100023.56;4482939;31;34614;-82
2023/10/04 01:59:17;;;;;;;4.03;1.87;;;;;;;18.14;63.53;100031.84;4489887;31;34177;-83
2023/10/04 02:01:46;;;;;;;4.50;2.03;;;;;;;18.17;63.59;100030.84;4478362;31;32738;-83
2023/10/04 02:04:15;;;;;;;5.43;2.28;;;;;;;18.05;64.60;100030.44;4491848;31;33914;-82
2023/10/04 02:06:44;;;;;;;6.22;2.62;;;;;;;18.11;65.25;100035.44;4488630;31;33634;-83
2023/10/04 02:09:13;;;;;;;7.05;1.98;;;;;;;18.21;65.23;100025.44;4482806;31;34367;-83
2023/10/04 02:11:42;;;;;;;3.50;2.45;;;;;;;18.09;65.59;100033.78;4477148;31;32952;-84
2023/10/04 02:14:11;;;;;;;3.45;1.52;;;;;;;18.34;64.67;100031.06;4487295;31;33979;-83
2023/10/04 02:16:41;;;;;;;4.75;2.75;;;;;;;18.29;64.45;100039.12;4482556;31;33603;-82
2023/10/04 02:19:11;;;;;;;3.33;1.60;;;;;;;18.49;63.04;100032.22;4478412;31;33599;-82
2023/10/04 02:21:44;;;;;;;3.30;2.17;;;;;;;18.61;62.16;100038.75;4484208;31;33915;-84
2023/10/04 02:24:13;;;;;;;3.80;2.03;;;;;;;18.57;62.26;100053.78;4476837;31;34626;-82
2023/10/04 02:26:42;;;;;;;3.58;1.83;;;;;;;18.66;61.63;100048.16;4476672;31;34026;-82
2023/10/04 02:29:12;;;;;;;2.15;0.88;;;;;;;18.94;60.39;100044.41;4476670;31;33400;-83
2023/10/04 02:31:44;;;;;;;2.62;1.37;;;;;;;19.00;60.00;100057.31;4490608;31;33215;-83
2023/10/04 02:34:16;;;;;;;2.42;1.27;;;;;;;19.14;59.44;100051.47;4491191;31;33764;-82
2023/10/04 02:36:48;;;;;;;3.45;1.25;;;;;;;19.19;59.35;100055.59;4476954;31;34382;-82
2023/10/04 02:39:17;;;;;;;2.75;1.20;;;;;;;19.24;59.23;100059.81;4478070;31;34164;-83
2023/10/04 02:41:47;;;;;;;2.17;1.23;;;;;;;19.25;59.21;100072.88;4475895;31;34365;-82
2023/10/04 02:44:17;;;;;;;3.70;1.48;;;;;;;19.19;59.54;100081.91;4481716;31;33473;-82
2023/10/04 02:46:48;;;;;;;4.45;1.23;;;;;;;19.41;59.02;100088.88;4477574;31;34070;-83
2023/10/04 02:49:17;;;;;;;1.02;0.88;;;;;;;19.21;59.76;100089.75;4485501;31;34181;-81
2023/10/04 02:51:46;;;;;;;3.47;1.12;;;;;;;19.05;60.15;100086.03;4475582;31;33937;-81
2023/10/04 02:54:16;;;;;;;3.28;2.00;;;;;;;18.90;60.81;100087.53;4483306;31;33689;-83
2023/10/04 02:56:48;;;;;;;2.50;1.27;;;;;;;18.94;60.70;100095.25;4479732;31;33738;-83
2023/10/04 02:59:17;;;;;;;4.72;1.30;;;;;;;19.06;60.38;100112.25;4490351;31;34029;-82
2023/10/04 03:01:49;;;;;;;2.28;1.55;;;;;;;19.17;60.04;100110.03;4476931;31;34202;-83
2023/10/04 03:04:19;;;;;;;7.80;3.78;;;;;;;18.80;60.98;100112.47;4476764;32;34639;-82
2023/10/04 03:06:51;;;;;;;1.87;0.80;;;;;;;18.98;60.46;100124.87;4482048;31;33697;-82
2023/10/04 03:09:24;;;;;;;0.82;0.60;;;;;;;19.00;59.98;100101.16;4479484;31;34272;-81
2023/10/04 03:11:53;;;;;;;2.30;1.20;;;;;;;18.85;60.34;100128.94;4480751;31;34247;-83
2023/10/04 03:14:25;;;;;;;1.73;1.02;;;;;;;19.00;59.90;100119.56;4476219;31;34380;-82
2023/10/04 03:17:08;;;;;;;3.80;1.40;;;;;;;19.08;59.65;100122.72;4482575;31;34830;-82
2023/10/04 03:19:42;;;;;;;0.88;0.62;;;;;;;19.12;59.37;100127.78;4494216;31;34673;-83
2023/10/04 03:22:11;;;;;;;0.73;0.73;;;;;;;18.78;60.33;100130.94;4482156;31;34162;-83
2023/10/04 03:24:40;;;;;;;1.27;0.85;;;;;;;18.96;59.94;100127.56;4476688;31;33815;-82
2023/10/04 03:27:09;;;;;;;2.72;0.85;;;;;;;19.08;59.49;100144.59;4479850;31;33947;-82
2023/10/04 03:29:39;;;;;;;0.88;0.75;;;;;;;18.95;60.06;100132.91;4487855;31;34698;-83
2023/10/04 03:32:09;;;;;;;2.40;0.90;;;;;;;19.13;59.43;100140.00;4478033;31;33263;-83
2023/10/04 03:34:40;;;;;;;1.08;0.98;;;;;;;19.08;59.25;100149.03;4491603;31;33727;-83
2023/10/04 03:37:09;;;;;;;2.92;0.70;;;;;;;19.25;58.93;100156.22;4487061;31;33207;-82
2023/10/04 03:39:39;;;;;;;1.35;0.80;;;;;;;19.05;59.10;100149.16;4482321;31;33586;-82
2023/10/04 03:42:11;;;;;;;1.37;0.87;;;;;;;19.09;59.23;100163.91;4493771;31;32974;-84
2023/10/04 03:44:39;;;;;;;4.72;1.27;;;;;;;18.98;59.52;100157.28;4485020;31;33672;-82
2023/10/04 03:47:10;;;;;;;0.50;0.50;;;;;;;18.96;59.46;100159.09;4485756;31;33771;-84
2023/10/04 03:49:39;;;;;;;1.60;0.70;;;;;;;18.96;59.53;100161.72;4476000;31;33637;-83
2023/10/04 03:52:10;;;;;;;3.33;0.93;;;;;;;19.10;59.05;100171.69;4487717;31;33208;-82
2023/10/04 03:54:39;;;;;;;;;;;;;;;18.98;58.93;100164.31;4477733;31;32243;-83
2023/10/04 03:57:09;;;;;;;2.20;0.75;;;;;;;19.09;58.57;100171.78;4483440;31;34052;-82
2023/10/04 03:59:38;;;;;;;1.75;0.68;;;;;;;18.64;59.60;100165.63;4480477;31;33555;-82
2023/10/04 04:02:11;;;;;;;0.62;0.62;;;;;;;18.74;59.09;100166.97;4479088;31;33128;-84
2023/10/04 04:04:41;;;;;;;0.45;0.45;;;;;;;18.93;58.60;100192.56;4482691;31;33506;-83
2023/10/04 04:07:11;;;;;;;1.10;0.75;;;;;;;18.70;58.44;100193.41;4476955;31;33948;-81
2023/10/04 04:09:42;;;;;;;2.12;1.12;;;;;;;18.67;58.31;100202.28;4478905;31;34736;-81
2023/10/04 04:12:11;;;;;;;2.70;0.75;;;;;;;18.56;57.94;100201.84;4475843;31;33919;-81
2023/10/04 04:14:40;;;;;;;1.45;1.00;;;;;;;18.77;57.54;100208.06;4495186;31;34427;-82
2023/10/04 04:17:09;;;;;;;0.77;0.77;;;;;;;18.67;57.25;100197.03;4475484;32;34015;-83
2023/10/04 04:19:38;;;;;;;2.37;0.77;;;;;;;18.48;57.77;100198.62;4475742;32;34721;-82
2023/10/04 04:22:08;;;;;;;0.57;0.50;;;;;;;18.51;57.52;100211.69;4475921;31;33347;-82
2023/10/04 04:24:37;;;;;;;0.52;0.50;;;;;;;18.54;57.57;100207.16;4476159;32;34446;-82
2023/10/04 04:27:07;;;;;;;0.68;0.52;;;;;;;18.64;57.28;100193.66;4481299;32;34158;-82
2023/10/04 04:29:38;;;;;;;1.67;0.95;;;;;;;18.57;57.48;100198.31;4481825;31;33828;-83
2023/10/04 04:32:08;;;;;;;1.00;0.62;;;;;;;18.54;57.57;100204.53;4485264;31;34034;-83
2023/10/04 04:34:41;;;;;;;1.37;0.70;;;;;;;18.54;57.56;100220.28;4486568;31;33825;-83
2023/10/04 04:37:14;;;;;;;2.62;1.00;;;;;;;18.36;58.28;100215.72;4488350;31;34087;-82
2023/10/04 04:39:43;;;;;;;9.48;0.93;;;;;;;18.53;57.51;100217.72;4477470;31;33826;-83
2023/10/04 04:42:12;;;;;;;2.10;0.70;;;;;;;18.50;57.71;100215.22;4486768;31;32993;-83
2023/10/04 04:44:42;;;;;;;2.70;1.08;;;;;;;18.32;57.74;100237.78;4479103;31;33445;-83
2023/10/04 04:47:12;;;;;;;1.00;0.65;;;;;;;18.49;57.06;100237.16;4474603;32;33653;-82
2023/10/04 04:49:41;;;;;;;0.43;0.43;;;;;;;18.36;57.44;100228.84;4483029;31;33616;-83
2023/10/04 04:52:13;;;;;;;0.77;0.67;;;;;;;18.32;57.59;100233.37;4476367;31;33287;-81
2023/10/04 04:54:41;;;;;;;2.53;0.80;;;;;;;18.45;57.16;100235.53;4479326;31;32865;-82
2023/10/04 04:57:11;;;;;;;1.70;0.90;;;;;;;18.36;57.46;100233.25;4478112;31;33848;-81
2023/10/04 04:59:42;;;;;;;1.48;1.15;;;;;;;18.18;58.17;100243.50;4485225;31;33488;-81
2023/10/04 05:02:14;;;;;;;0.98;0.60;;;;;;;18.33;58.05;100244.72;4482507;31;34050;-82
2023/10/04 05:04:43;;;;;;;0.60;0.60;;;;;;;18.34;57.89;100236.81;4483435;31;33648;-82
2023/10/04 05:07:13;;;;;;;1.05;0.77;;;;;;;18.30;57.75;100243.06;4477053;32;34030;-82
2023/10/04 05:09:43;;;;;;;5.03;1.15;;;;;;;18.27;57.38;100243.19;4478644;31;33192;-82
2023/10/04 05:12:12;;;;;;;1.20;0.60;;;;;;;17.82;58.64;100264.88;4494115;31;33899;-80
2023/10/04 05:14:41;;;;;;;0.93;0.62;;;;;;;18.14;57.56;100262.91;4480880;31;33107;-82
2023/10/04 05:17:10;;;;;;;1.25;0.70;;;;;;;18.07;57.96;100264.03;4480622;31;33694;-82
2023/10/04 05:19:39;;;;;;;1.15;0.57;;;;;;;18.16;57.72;100271.59;4479563;31;33633;-82
2023/10/04 05:22:07;;;;;;;1.37;0.80;;;;;;;18.23;57.07;100275.72;4487134;31;32955;-83
2023/10/04 05:24:38;;;;;;;2.80;0.95;;;;;;;18.21;57.13;100274.91;4476701;31;33551;-81
2023/10/04 05:27:07;;;;;;;0.88;0.75;;;;;;;18.31;57.03;100275.44;4479709;31;33954;-81
2023/10/04 05:29:35;;;;;;;0.85;0.85;;;;;;;17.96;58.18;100295.06;4474289;31;33507;-83
2023/10/04 05:32:05;;;;;;;0.93;0.75;;;;;;;18.01;58.12;100301.87;4479449;31;33926;-81
2023/10/04 05:34:34;;;;;;;1.12;0.88;;;;;;;18.09;57.92;100302.44;4482381;31;33782;-82
2023/10/04 05:37:02;;;;;;;3.22;0.77;;;;;;;18.06;57.38;100312.22;4473677;32;33886;-82
2023/10/04 05:39:32;;;;;;;1.00;0.70;;;;;;;18.02;57.57;100307.97;4476916;31;33769;-81
2023/10/04 05:42:05;;;;;;;1.40;0.90;;;;;;;18.24;56.51;100327.34;4476870;31;33101;-82
2023/10/04 05:44:34;;;;;;;0.60;0.60;;;;;;;17.85;56.84;100340.88;4481360;32;33915;-83
2023/10/04 05:47:04;;;;;;;2.03;0.88;;;;;;;18.01;56.28;100322.03;4478734;31;33717;-82
2023/10/04 05:49:33;;;;;;;1.45;1.12;;;;;;;18.13;55.38;100343.47;4478370;31;33733;-81
2023/10/04 05:52:01;;;;;;;0.50;0.45;;;;;;;18.03;55.01;100338.59;4476907;32;34169;-80
2023/10/04 05:54:30;;;;;;;0.82;0.60;;;;;;;17.84;53.99;100328.69;4483217;31;33908;-81
2023/10/04 05:57:01;;;;;;;1.42;0.88;;;;;;;17.84;54.06;100327.84;4480533;31;33743;-82
2023/10/04 05:59:34;;;;;;;;;;;;;;;17.78;52.90;100335.84;4480601;31;34021;-83
2023/10/04 06:02:03;;;;;;;1.15;0.70;;;;;;;17.69;52.88;100332.63;4476124;31;33306;-81
2023/10/04 06:04:33;;;;;;;4.82;1.00;;;;;;;17.75;52.08;100357.81;4477053;31;34635;-82
2023/10/04 06:07:02;;;;;;;1.33;0.70;;;;;;;17.65;52.28;100359.88;4485576;31;33798;-81
2023/10/04 06:09:32;;;;;;;1.48;0.80;;;;;;;17.64;51.23;100367.81;4482049;31;33821;-83
2023/10/04 06:12:02;;;;;;;0.75;0.57;;;;;;;17.58;51.64;100395.06;4476607;31;33010;-82
2023/10/04 06:14:32;;;;;;;1.35;0.70;;;;;;;17.89;50.69;100387.13;4476697;32;33432;-81
2023/10/04 06:17:02;;;;;;;1.20;0.65;;;;;;;18.03;49.84;100396.34;4479414;32;33229;-82
2023/10/04 06:19:31;;;;;;;1.65;0.80;;;;;;;17.89;50.12;100397.63;4480590;32;34811;-81
2023/10/04 06:22:00;;;;;;;1.10;0.60;;;;;;;17.74;49.78;100403.34;4476361;32;33131;-83
2023/10/04 06:24:29;;;;;;;1.25;0.70;;;;;;;17.79;49.75;100409.31;4478096;31;33442;-82
2023/10/04 06:26:58;;;;;;;1.37;0.73;;;;;;;17.83;49.55;100416.22;4485537;31;34508;-82
2023/10/04 06:29:27;;;;;;;0.65;0.60;;;;;;;17.86;50.08;100412.63;4484000;31;33683;-83
2023/10/04 06:32:00;;;;;;;3.05;1.37;;;;;;;18.26;49.04;100424.47;4482575;31;33842;-82
2023/10/04 06:34:28;;;;;;;0.57;0.50;;;;;;;17.91;48.47;100423.84;4480526;31;32114;-81
2023/10/04 06:36:57;;;;;;;0.60;0.50;;;;;;;18.01;48.53;100427.03;4482491;31;33612;-82
2023/10/04 06:39:27;;;;;;;1.60;0.80;;;;;;;17.85;49.26;100430.13;4481682;32;33377;-82
2023/10/04 06:41:55;;;;;;;1.60;0.62;;;;;;;17.89;49.74;100425.66;4477581;32;33392;-82
2023/10/04 06:44:27;;;;;;;3.42;1.33;;;;;;;18.23;48.73;100433.28;4473926;31;33513;-82
2023/10/04 06:46:55;;;;;;;;;;;;;;;18.00;48.16;100428.81;4484584;31;34125;-82
2023/10/04 06:49:25;;;;;;;0.65;0.65;;;;;;;17.72;49.17;100436.66;4483958;31;33849;-82
2023/10/04 06:51:55;;;;;;;1.55;0.60;;;;;;;17.81;48.43;100444.28;4493859;31;33419;-81
2023/10/04 06:54:23;;;;;;;0.73;0.73;;;;;;;17.52;49.70;100433.75;4492239;31;33830;-82
2023/10/04 06:56:52;;;;;;;0.77;0.60;;;;;;;17.54;49.13;100435.44;4492575;31;34775;-82
2023/10/04 06:59:22;;;;;;;0.95;0.80;;;;;;;17.72;49.30;100430.53;4491036;31;33938;-83
2023/10/04 07:01:51;;;;;;;0.85;0.68;;;;;;;17.55;49.35;100420.56;4498421;31;33098;-82
2023/10/04 07:04:20;;;;;;;0.70;0.57;;;;;;;17.26;50.13;100432.78;4493336;31;34336;-83
2023/10/04 07:06:50;;;;;;;1.45;0.75;;;;;;;17.40;49.93;100441.09;4492419;31;33841;-81
2023/10/04 07:09:19;;;;;;;0.73;0.70;;;;;;;17.38;49.98;100434.19;4491681;31;33353;-83
2023/10/04 07:11:48;;;;;;;1.27;0.73;;;;;;;17.60;49.73;100447.50;4493195;31;33952;-82
2023/10/04 07:14:16;;;;;;;0.57;0.40;;;;;;;17.85;49.46;100451.13;4498007;31;33963;-82
2023/10/04 07:16:47;;;;;;;0.88;0.88;;;;;;;17.52;50.20;100445.12;4476414;32;33964;-81
2023/10/04 07:19:16;;;;;;;2.20;0.70;;;;;;;17.59;50.08;100461.53;4476556;32;33550;-82
2023/10/04 07:21:45;;;;;;;1.25;0.90;;;;;;;17.53;50.38;100456.47;4476611;32;33376;-83
2023/10/04 07:24:15;;;;;;;0.60;0.60;;;;;;;17.58;50.52;100452.78;4481855;32;33420;-81
2023/10/04 07:26:45;;;;;;;;;;;;;;;17.45;50.98;100425.22;4366534;32;3554234;-83
2023/10/04 07:29:14;;;;;;;0.82;0.65;;;;;;;17.31;51.31;100438.75;4476712;32;34965;-82
2023/10/04 07:31:42;;;;;;;0.52;0.52;;;;;;;17.38;51.50;100444.66;4476453;32;34079;-81
2023/10/04 07:34:11;;;;;;;1.02;0.68;;;;;;;17.40;51.16;100463.84;4479551;32;33086;-82
2023/10/04 07:36:42;;;;;;;1.37;0.73;;;;;;;17.46;51.15;100485.50;4482198;32;34296;-83
2023/10/04 07:39:15;;;;;;;0.50;0.50;;;;;;;17.66;50.49;100499.78;4478190;31;34270;-83
2023/10/04 07:41:46;;;;;;;2.85;0.82;;;;;;;17.44;51.66;100499.56;4492242;31;33313;-83
2023/10/04 07:44:15;;;;;;;1.08;0.62;;;;;;;17.69;50.59;100490.09;4491996;31;32840;-83
2023/10/04 07:46:43;;;;;;;0.88;0.60;;;;;;;17.68;50.66;100477.84;4497968;31;33488;-82
2023/10/04 07:49:31;;;;;;;1.30;0.75;;;;;;;17.76;50.45;100469.78;4492762;31;33604;-83
2023/10/04 07:52:01;;;;;;;2.83;0.85;;;;;;;17.70;50.82;100485.69;4492393;31;33296;-81
2023/10/04 07:54:31;;;;;;;1.48;0.60;;;;;;;17.74;51.27;100487.31;4491903;31;33535;-83
2023/10/04 07:57:03;;;;;;;0.65;0.52;;;;;;;17.85;50.52;100484.41;4492095;31;33661;-82
2023/10/04 07:59:32;;;;;;;0.95;0.73;;;;;;;17.86;50.61;100484.34;4497441;31;33849;-82
2023/10/04 08:02:01;;;;;;;1.37;0.77;;;;;;;18.19;50.58;100484.19;4492074;31;33005;-83
2023/10/04 08:04:30;;;;;;;0.73;0.65;;;;;;;18.26;49.72;100472.59;4491561;31;33967;-83
2023/10/04 08:06:58;;;;;;;0.93;0.80;;;;;;;18.37;49.58;100484.53;4492015;31;34601;-83
2023/10/04 08:09:28;;;;;;;0.95;0.60;;;;;;;18.17;50.12;100488.66;4497134;31;33376;-81
2023/10/04 08:11:58;;;;;;;0.47;0.47;;;;;;;18.09;50.52;100496.75;4494491;31;32490;-81
2023/10/04 08:14:29;;;;;;;2.00;1.90;;;;;;;18.05;50.40;100499.53;4491649;31;34603;-81
2023/10/04 08:16:59;;;;;;;1.55;0.90;;;;;;;17.88;51.08;100498.31;4491630;31;33908;-82
2023/10/04 08:19:28;;;;;;;1.15;0.60;;;;;;;17.75;51.76;100506.53;4488352;31;33570;-82
2023/10/04 08:21:57;;;;;;;1.42;0.60;;;;;;;17.83;51.94;100509.81;4497363;31;33967;-82
2023/10/04 08:24:26;;;;;;;0.60;0.60;;;;;;;17.79;51.74;100503.78;4482411;31;33525;-81
2023/10/04 08:26:55;;;;;;;0.70;0.50;;;;;;;17.78;51.75;100496.81;4493267;31;34670;-83
2023/10/04 08:29:29;;;;;;;1.25;1.15;;;;;;;17.89;51.71;100510.50;4493584;31;34004;-81
2023/10/04 08:31:57;;;;;;;1.33;0.82;;;;;;;18.02;51.44;100512.75;4490217;31;33597;-81
2023/10/04 08:34:26;;;;;;;0.50;0.50;;;;;;;17.92;51.84;100513.03;4483704;31;34522;-81
2023/10/04 08:36:59;;;;;;;0.77;0.70;;;;;;;18.01;51.96;100518.94;4477407;32;33944;-81
2023/10/04 08:39:28;;;;;;;0.50;0.50;;;;;;;18.19;51.99;100512.22;4478540;32;34205;-82
2023/10/04 08:41:57;;;;;;;0.75;0.57;;;;;;;18.29;51.60;100511.03;4477822;32;33835;-83
2023/10/04 08:44:26;;;;;;;2.17;1.15;;;;;;;18.34;50.90;100525.75;4483244;32;33882;-83
2023/10/04 08:46:58;;;;;;;0.52;0.50;;;;;;;18.53;50.79;100527.75;4477748;32;34249;-81
2023/10/04 08:49:29;;;;;;;0.60;0.60;;;;;;;18.21;51.50;100539.31;4477734;32;34762;-83
2023/10/04 08:52:01;;;;;;;0.90;0.65;;;;;;;18.67;50.06;100541.31;4487511;31;33026;-81
2023/10/04 08:54:30;;;;;;;1.37;0.62;;;;;;;18.47;50.71;100546.38;4494724;31;33730;-83
2023/10/04 08:57:06;;;;;;;0.93;0.85;;;;;;;18.37;50.43;100539.69;4496190;31;34394;-81
2023/10/04 08:59:35;;;;;;;0.75;0.70;;;;;;;18.52;50.58;100540.06;4493272;31;33630;-82
2023/10/04 09:02:07;;;;;;;0.50;0.50;;;;;;;18.48;50.52;100543.72;4492530;31;33978;-81
2023/10/04 09:04:40;;;;;;;1.37;0.70;;;;;;;18.33;51.14;100538.94;4493187;31;33310;-81
2023/10/04 09:07:10;;;;;;;0.83;0.70;;;;;;;18.07;51.60;100540.62;4499477;31;34066;-83
2023/10/04 09:09:39;;;;;;;0.50;0.50;;;;;;;18.22;51.29;100541.91;4496312;31;34512;-83
2023/10/04 09:12:11;;;;;;;3.75;0.77;;;;;;;17.96;51.90;100533.97;4485839;31;33902;-83
2023/10/04 09:14:40;;;;;;;1.08;0.93;;;;;;;18.24;51.57;100534.84;4480204;31;33586;-82
2023/10/04 09:17:14;;;;;;;1.40;0.88;;;;;;;18.16;51.67;100533.34;4488809;31;33732;-82
2023/10/04 09:19:43;;;;;;;1.87;0.68;;;;;;;18.74;50.08;100536.72;4489771;31;33669;-82
2023/10/04 09:22:17;;;;;;;0.73;0.55;;;;;;;18.36;50.55;100536.19;4484320;31;33389;-81
2023/10/04 09:24:54;;;;;;;0.98;0.77;;;;;;;18.48;50.23;100535.81;4483704;31;33943;-83
2023/10/04 09:27:23;;;;;;;1.90;0.60;;;;;;;18.44;50.27;100533.34;4486194;31;33772;-82
2023/10/04 09:29:53;;;;;;;1.17;0.73;;;;;;;18.60;50.12;100539.78;4490128;31;33975;-81
2023/10/04 09:32:37;;;;;;;1.48;0.68;;;;;;;18.68;49.76;100542.19;4485461;31;34257;-82
2023/10/04 09:35:08;;;;;;;0.45;0.45;;;;;;;18.66;49.73;100546.63;4476744;32;33838;-82
2023/10/04 09:37:37;;;;;;;1.12;0.93;;;;;;;18.82;49.37;100554.91;4479363;32;33590;-83
2023/10/04 09:40:07;;;;;;;1.65;0.45;;;;;;;18.88;49.17;100541.56;4477399;32;33637;-83
2023/10/04 09:42:47;;;;;;;1.00;0.68;;;;;;;19.21;48.22;100536.03;4482583;32;33086;-81
2023/10/04 09:45:16;;;;;;;1.35;0.60;;;;;;;19.14;47.80;100567.81;4483018;31;34497;-83
2023/10/04 09:47:46;;;;;;;0.43;0.43;;;;;;;19.31;47.74;100559.34;4481551;31;34482;-81
2023/10/04 09:50:20;;;;;;;0.68;0.65;;;;;;;19.50;46.34;100569.19;4481123;31;33294;-83
2023/10/04 09:52:49;;;;;;;0.70;0.50;;;;;;;19.75;46.14;100562.16;4484629;31;32112;-82
2023/10/04 09:55:20;;;;;;;0.95;0.50;;;;;;;19.98;46.21;100571.84;4488961;31;33627;-81
2023/10/04 09:57:50;;;;;;;2.33;0.55;;;;;;;20.14;45.41;100568.59;4486488;31;34031;-82
2023/10/04 10:00:19;;;;;;;2.10;1.10;;;;;;;20.35;45.01;100559.84;4492935;31;34589;-82
2023/10/04 10:02:54;;;;;;;0.75;0.50;;;;;;;20.54;45.12;100567.00;4490396;31;33147;-81
2023/10/04 10:05:27;;;;;;;0.85;0.60;;;;;;;20.40;45.13;100557.91;4476886;32;33901;-83
2023/10/04 10:08:04;;;;;;;5.57;0.60;;;;;;;20.44;44.41;100564.75;4482697;32;33568;-83
2023/10/04 10:10:34;;;;;;;1.40;0.88;;;;;;;20.45;44.36;100571.75;4484156;31;34118;-83
2023/10/04 10:13:04;;;;;;;2.20;0.60;;;;;;;20.46;45.05;100568.19;4492532;31;33434;-82
2023/10/04 10:15:34;;;;;;;1.50;0.98;;;;;;;20.42;44.68;100571.88;4492733;31;34569;-82
2023/10/04 10:18:07;;;;;;;0.30;0.30;;;;;;;20.48;44.42;100564.62;4498346;31;34259;-81
2023/10/04 10:20:37;;;;;;;1.90;0.90;;;;;;;20.37;44.39;100587.00;4495380;31;34614;-82
2023/10/04 10:23:14;;;;;;;1.73;0.75;;;;;;;20.25;44.42;100574.31;4477303;32;33016;-82
2023/10/04 10:26:16;;;;;;;1.20;0.60;;;;;;;20.03;45.19;100580.41;4476730;32;33970;-81
2023/10/04 10:28:47;;;;;;;1.25;0.70;;;;;;;20.21;44.14;100575.34;4477156;32;34795;-82
2023/10/04 10:31:19;;;;;;;;;;;;;;;19.93;44.87;100575.53;4483432;31;33508;-81
2023/10/04 10:33:50;;;;;;;1.42;0.60;;;;;;;19.91;44.47;100565.09;4487012;31;34008;-83
2023/10/04 10:36:21;;;;;;;0.88;0.55;;;;;;;20.14;44.72;100579.13;4482867;31;33523;-82
2023/10/04 10:38:51;;;;;;;;;;;;;;;20.28;43.45;100583.88;4485313;31;33676;-82
2023/10/04 10:42:03;;;;;;;1.62;0.65;;;;;;;20.07;43.91;100570.59;4484509;31;33895;-81
2023/10/04 10:44:33;;;;;;;0.90;0.47;;;;;;;20.15;43.43;100571.19;4475452;32;33404;-81
2023/10/04 10:47:15;;;;;;;1.20;0.60;;;;;;;20.10;42.79;100572.25;4481914;32;33777;-82
2023/10/04 10:49:50;;;;;;;1.30;0.70;;;;;;;20.24;42.58;100562.03;4482712;32;34878;-82
2023/10/04 10:52:31;;;;;;;1.70;1.33;;;;;;;20.46;42.95;100568.19;4476487;32;33764;-82
2023/10/04 10:55:01;;;;;;;1.75;1.25;;;;;;;20.34;42.59;100563.38;4478219;31;33937;-82
2023/10/04 10:57:30;;;;;;;0.80;0.50;;;;;;;20.16;42.81;100559.72;4476752;32;33801;-83
2023/10/04 11:00:11;;;;;;;1.27;0.85;;;;;;;20.33;42.33;100568.75;4479239;32;33853;-81
2023/10/04 11:02:40;;;;;;;1.25;0.82;;;;;;;20.33;42.45;100564.31;4482457;32;34502;-82
2023/10/04 11:05:12;;;;;;;0.95;0.65;;;;;;;20.54;41.82;100565.25;4476688;32;33234;-82
2023/10/04 11:07:41;;;;;;;2.08;1.75;;;;;;;20.64;41.92;100563.13;4476780;32;33568;-81
2023/10/04 11:10:13;;;;;;;1.73;0.60;;;;;;;20.62;42.21;100550.00;4491180;31;33786;-82
2023/10/04 11:12:43;;;;;;;1.65;0.70;;;;;;;20.81;42.40;100547.47;4498172;31;33835;-81
2023/10/04 11:15:13;;;;;;;2.03;0.60;;;;;;;20.63;41.18;100561.41;4492523;31;32906;-82
2023/10/04 11:17:43;;;;;;;0.90;0.45;;;;;;;20.63;39.94;100549.09;4492269;31;33531;-81
2023/10/04 11:20:17;;;;;;;1.30;0.50;;;;;;;20.34;41.11;100542.31;4492711;31;34040;-81
2023/10/04 11:22:46;;;;;;;4.18;1.10;;;;;;;20.18;41.34;100546.50;4492703;31;33435;-82
2023/10/04 11:25:16;;;;;;;1.95;0.88;;;;;;;20.23;41.58;100541.91;4497805;31;32874;-82
2023/10/04 11:27:46;;;;;;;0.80;0.50;;;;;;;20.26;41.65;100539.13;4492451;31;33580;-83
2023/10/04 11:30:17;;;;;;;0.77;0.60;;;;;;;20.56;41.50;100533.56;4491944;31;33188;-83
2023/10/04 11:32:46;;;;;;;0.98;0.50;;;;;;;20.62;41.07;100533.34;4492966;31;33507;-82
2023/10/04 11:35:19;;;;;;;3.28;0.70;;;;;;;20.53;40.85;100531.03;4497948;31;34156;-82
2023/10/04 11:37:50;;;;;;;3.87;0.70;;;;;;;20.36;40.35;100535.22;4494886;31;34623;-81
2023/10/04 11:40:22;;;;;;;1.35;0.73;;;;;;;20.15;40.85;100544.84;4476052;32;34012;-81
2023/10/04 11:42:59;;;;;;;1.45;0.62;;;;;;;19.91;39.18;100533.47;4475985;32;34728;-79